createdAt,value
2022-09-05T00:02:36.382Z,99.90
2022-09-05T00:05:30.924Z,99.90
2022-09-05T00:08:38.512Z,99.90
2022-09-05T00:11:46.341Z,99.90
2022-09-05T00:15:16.338Z,99.90
2022-09-05T00:21:10.483Z,99.90
2022-09-05T00:25:08.643Z,99.90
2022-09-05T00:28:26.355Z,99.90
2022-09-05T00:31:53.643Z,99.90
2022-09-05T00:34:47.199Z,99.90
2022-09-05T00:37:36.727Z,99.90
2022-09-05T00:40:59.545Z,99.90
2022-09-05T00:43:42.689Z,99.90
2022-09-05T00:46:33.799Z,99.90
2022-09-05T00:49:31.517Z,99.90
2022-09-05T00:52:17.645Z,99.90
2022-09-05T00:55:19.079Z,99.90
2022-09-05T00:58:22.155Z,99.90
2022-09-05T01:01:03.288Z,99.90
2022-09-05T01:04:16.307Z,99.90
2022-09-05T01:07:24.331Z,99.90
2022-09-05T01:10:04.925Z,99.90
2022-09-05T01:13:10.204Z,99.90
2022-09-05T01:15:57.837Z,99.90
2022-09-05T01:18:52.777Z,99.90
2022-09-05T01:21:48.245Z,99.90
2022-09-05T01:24:45.608Z,99.90
2022-09-05T01:28:56.348Z,99.90
2022-09-05T01:31:18.392Z,99.90
2022-09-05T01:34:31.263Z,99.90
2022-09-05T01:37:24.693Z,99.90
2022-09-05T01:40:39.665Z,99.90
2022-09-05T01:43:24.380Z,99.90
2022-09-05T01:46:31.516Z,99.90
2022-09-05T01:49:42.640Z,99.90
2022-09-05T01:52:20.445Z,99.90
2022-09-05T01:56:04.943Z,99.90
2022-09-05T01:59:08.391Z,99.90
2022-09-05T02:02:15.305Z,99.90
2022-09-05T02:05:47.492Z,99.90
2022-09-05T02:08:39.392Z,99.90
2022-09-05T02:11:35.656Z,99.90
2022-09-05T02:14:24.311Z,99.90
2022-09-05T02:17:50.942Z,99.90
2022-09-05T02:20:37.096Z,99.90
2022-09-05T02:23:34.238Z,99.90
2022-09-05T02:26:30.425Z,99.90
2022-09-05T02:29:43.643Z,99.90
2022-09-05T02:32:40.571Z,99.90
2022-09-05T02:35:42.945Z,99.90
2022-09-05T02:42:43.516Z,99.90
2022-09-05T02:45:13.251Z,99.90
2022-09-05T02:45:25.482Z,99.90
2022-09-05T02:48:14.943Z,99.90
2022-09-05T02:57:25.576Z,99.90
2022-09-05T02:57:41.754Z,99.90
2022-09-05T02:58:05.537Z,99.90
2022-09-05T03:00:50.992Z,99.90
2022-09-05T03:04:02.418Z,99.90
2022-09-05T03:06:52.714Z,99.90
2022-09-05T03:09:53.093Z,99.90
2022-09-05T03:13:00.296Z,99.90
2022-09-05T03:16:13.929Z,99.90
2022-09-05T03:19:15.715Z,99.90
2022-09-05T03:22:08.689Z,99.90
2022-09-05T03:25:00.719Z,99.90
2022-09-05T03:27:38.632Z,99.90
2022-09-05T03:30:53.947Z,99.90
2022-09-05T03:33:49.732Z,99.90
2022-09-05T03:36:55.443Z,99.90
2022-09-05T03:40:15.869Z,99.90
2022-09-05T03:43:21.323Z,99.90
2022-09-05T03:46:26.228Z,99.90
2022-09-05T03:50:23.187Z,99.90
2022-09-05T03:57:11.315Z,99.90
2022-09-05T03:57:24.260Z,99.90
2022-09-05T03:59:38.761Z,99.90
2022-09-05T04:08:09.442Z,99.90
2022-09-05T04:08:17.878Z,99.90
2022-09-05T04:09:13.291Z,99.90
2022-09-05T04:11:58.537Z,99.90
2022-09-05T04:14:56.759Z,99.90
2022-09-05T04:17:49.297Z,99.90
2022-09-05T04:20:56.657Z,99.90
2022-09-05T04:23:52.969Z,99.90
2022-09-05T04:27:15.779Z,99.90
2022-09-05T04:30:38.467Z,99.90
2022-09-05T04:33:35.977Z,99.90
2022-09-05T04:36:34.646Z,99.90
2022-09-05T04:39:26.789Z,99.90
2022-09-05T04:42:27.180Z,99.90
2022-09-05T04:45:14.301Z,99.90
2022-09-05T04:47:55.432Z,99.90
2022-09-05T04:50:37.683Z,99.90
2022-09-05T04:53:39.460Z,99.90
2022-09-05T04:56:20.215Z,99.90
2022-09-05T05:00:47.105Z,99.90
2022-09-05T05:06:00.469Z,99.90
2022-09-05T05:06:16.111Z,99.90
2022-09-05T05:08:28.946Z,99.90
2022-09-05T05:18:00.143Z,99.90
2022-09-05T05:18:01.817Z,99.90
2022-09-05T05:18:42.257Z,99.90
2022-09-05T05:21:10.365Z,99.90
2022-09-05T05:24:00.792Z,99.90
2022-09-05T05:27:16.753Z,99.90
2022-09-05T05:29:48.780Z,99.90
2022-09-05T05:32:24.897Z,99.90
2022-09-05T05:35:21.174Z,99.90
2022-09-05T05:38:27.200Z,99.90
2022-09-05T05:41:23.869Z,99.90
2022-09-05T05:43:57.717Z,99.90
2022-09-05T05:46:40.029Z,99.90
2022-09-05T05:49:52.694Z,99.90
2022-09-05T05:52:57.703Z,99.90
2022-09-05T05:55:53.558Z,99.90
2022-09-05T05:59:00.815Z,99.90
2022-09-05T06:01:58.007Z,99.90
2022-09-05T06:05:20.163Z,99.90
2022-09-05T06:14:21.940Z,99.90
2022-09-05T06:14:57.994Z,99.90
2022-09-05T06:15:29.726Z,99.90
2022-09-05T06:18:19.743Z,99.90
2022-09-05T06:22:06.424Z,99.90
2022-09-05T06:24:16.761Z,99.90
2022-09-05T06:27:43.872Z,99.90
2022-09-05T06:30:33.886Z,99.90
2022-09-05T06:33:29.808Z,99.90
2022-09-05T06:36:26.812Z,99.90
2022-09-05T06:39:18.220Z,99.90
2022-09-05T06:42:42.250Z,99.90
2022-09-05T06:45:42.072Z,99.90
2022-09-05T06:48:44.537Z,99.90
2022-09-05T06:52:06.832Z,99.90
2022-09-05T06:55:14.965Z,99.90
2022-09-05T06:57:49.758Z,99.90
2022-09-05T07:00:50.414Z,99.90
2022-09-05T07:03:54.082Z,99.90
2022-09-05T07:07:35.800Z,99.90
2022-09-05T07:10:38.299Z,99.90
2022-09-05T07:13:28.812Z,99.90
2022-09-05T07:16:38.403Z,99.90
2022-09-05T07:19:31.762Z,99.90
2022-09-05T07:22:47.291Z,99.90
2022-09-05T07:25:35.791Z,99.90
2022-09-05T07:28:28.582Z,99.90
2022-09-05T07:31:06.820Z,99.90
2022-09-05T07:33:43.103Z,99.90
2022-09-05T07:36:15.707Z,99.90
2022-09-05T07:39:12.279Z,99.90
2022-09-05T07:42:14.566Z,99.90
2022-09-05T07:45:11.345Z,99.90
2022-09-05T07:47:58.086Z,99.90
2022-09-05T07:52:23.533Z,99.90
2022-09-05T07:56:52.411Z,99.90
2022-09-05T07:57:03.848Z,99.90
2022-09-05T07:59:18.319Z,99.90
2022-09-05T08:01:50.418Z,99.90
2022-09-05T08:04:35.104Z,99.90
2022-09-05T08:07:49.440Z,99.90
2022-09-05T08:10:31.032Z,99.90
2022-09-05T08:13:24.379Z,99.90
2022-09-05T08:16:15.239Z,99.90
2022-09-05T08:19:18.208Z,99.90
2022-09-05T08:21:52.497Z,99.90
2022-09-05T08:25:00.860Z,99.90
2022-09-05T08:27:42.185Z,99.90
2022-09-05T08:30:26.582Z,99.90
2022-09-05T08:33:11.922Z,99.90
2022-09-05T08:36:01.310Z,99.90
2022-09-05T08:38:40.413Z,99.90
2022-09-05T08:41:50.438Z,99.90
2022-09-05T08:46:44.300Z,99.90
2022-09-05T08:48:19.549Z,99.90
2022-09-05T08:51:20.772Z,99.90
2022-09-05T08:54:15.699Z,99.90
2022-09-05T08:56:55.016Z,99.90
2022-09-05T08:59:31.613Z,99.90
2022-09-05T09:02:46.460Z,99.90
2022-09-05T09:06:08.503Z,99.90
2022-09-05T09:09:21.844Z,99.90
2022-09-05T09:12:09.281Z,99.90
2022-09-05T09:15:19.637Z,99.90
2022-09-05T09:17:50.392Z,99.90
2022-09-05T09:20:59.339Z,99.90
2022-09-05T09:24:18.204Z,99.90
2022-09-05T09:28:01.524Z,99.90
2022-09-05T09:30:14.496Z,99.90
2022-09-05T09:32:59.438Z,99.90
2022-09-05T09:36:07.807Z,99.90
2022-09-05T09:39:11.975Z,99.90
2022-09-05T09:42:32.862Z,99.90
2022-09-05T09:45:27.722Z,99.90
2022-09-05T09:48:29.877Z,99.90
2022-09-05T09:51:37.424Z,99.90
2022-09-05T09:54:09.715Z,99.90
2022-09-05T09:57:28.206Z,99.90
2022-09-05T10:00:05.103Z,99.90
2022-09-05T10:04:54.266Z,99.90
2022-09-05T10:10:39.226Z,99.90
2022-09-05T10:10:48.194Z,99.90
2022-09-05T10:13:28.330Z,99.90
2022-09-05T10:16:17.013Z,99.90
2022-09-05T10:19:14.644Z,99.90
2022-09-05T10:22:37.258Z,99.90
2022-09-05T10:25:37.615Z,99.90
2022-09-05T10:28:35.970Z,99.90
2022-09-05T10:34:45.963Z,99.90
2022-09-05T10:35:19.763Z,99.90
2022-09-05T10:37:51.578Z,99.90
2022-09-05T10:40:25.882Z,99.90
2022-09-05T10:43:03.293Z,99.90
2022-09-05T10:46:28.480Z,99.90
2022-09-05T10:49:10.955Z,99.90
2022-09-05T10:52:19.007Z,99.90
2022-09-05T10:54:53.122Z,99.90
2022-09-05T10:58:06.433Z,99.90
2022-09-05T11:02:20.363Z,99.90
2022-09-05T11:04:49.902Z,99.90
2022-09-05T11:07:34.055Z,99.90
2022-09-05T11:10:27.877Z,99.90
2022-09-05T11:13:39.537Z,99.90
2022-09-05T11:16:28.997Z,99.90
2022-09-05T11:19:42.188Z,99.90
2022-09-05T11:22:24.461Z,99.90
2022-09-05T11:25:00.169Z,99.90
2022-09-05T11:27:51.699Z,99.90
2022-09-05T11:30:39.054Z,99.90
2022-09-05T11:39:48.171Z,99.90
2022-09-05T11:39:53.393Z,99.90
2022-09-05T11:40:31.615Z,99.90
2022-09-05T11:43:20.605Z,99.90
2022-09-05T11:46:11.966Z,99.90
2022-09-05T11:49:19.127Z,99.90
2022-09-05T11:52:26.852Z,99.90
2022-09-05T11:55:48.647Z,99.90
2022-09-05T11:58:53.466Z,99.90
2022-09-05T12:02:16.694Z,99.90
2022-09-05T12:05:48.891Z,99.90
2022-09-05T12:08:28.724Z,99.90
2022-09-05T12:11:06.823Z,99.90
2022-09-05T12:14:00.980Z,99.90
2022-09-05T12:17:34.856Z,99.90
2022-09-05T12:20:57.291Z,99.90
2022-09-05T12:25:15.968Z,99.50
2022-09-05T12:27:43.821Z,99.10
2022-09-05T12:30:01.423Z,98.10
2022-09-05T12:34:50.988Z,96.70
2022-09-05T12:40:58.023Z,97.50
2022-09-05T12:41:01.093Z,96.50
2022-09-05T12:43:52.912Z,96.10
2022-09-05T12:45:58.648Z,95.90
2022-09-05T12:49:17.242Z,95.70
2022-09-05T12:51:55.226Z,95.70
2022-09-05T12:54:33.268Z,94.40
2022-09-05T13:00:48.195Z,94.50
2022-09-05T13:03:08.223Z,92.80
2022-09-05T13:03:32.458Z,91.30
2022-09-05T13:06:25.358Z,88.50
2022-09-05T13:09:05.555Z,78.60
2022-09-05T13:14:50.484Z,74.40
2022-09-05T13:15:21.735Z,73.90
2022-09-05T13:18:19.399Z,77.80
2022-09-05T13:21:12.677Z,79.70
2022-09-05T13:24:15.125Z,76.90
2022-09-05T13:26:49.099Z,75.60
2022-09-05T13:32:23.810Z,73.60
2022-09-05T13:37:58.358Z,73.30
2022-09-05T13:38:10.676Z,72.10
2022-09-05T13:38:55.899Z,65.80
2022-09-05T13:44:25.549Z,51.90
2022-09-05T13:47:53.447Z,48.20
2022-09-05T13:50:31.808Z,47.20
2022-09-05T13:53:36.623Z,45.70
2022-09-05T13:56:24.288Z,43.50
2022-09-05T13:59:12.141Z,42.40
2022-09-05T14:02:29.104Z,42.40
2022-09-05T14:05:43.666Z,42.30
2022-09-05T14:09:35.276Z,41.40
2022-09-05T14:11:58.146Z,42.00
2022-09-05T14:18:20.618Z,42.40
2022-09-05T14:21:20.326Z,43.40
2022-09-05T14:24:16.801Z,43.80
2022-09-05T14:27:08.374Z,45.10
2022-09-05T14:29:54.006Z,47.00
2022-09-05T14:37:45.203Z,47.80
2022-09-05T14:37:55.457Z,47.40
2022-09-05T14:39:14.470Z,48.30
2022-09-05T14:42:26.403Z,47.20
2022-09-05T14:45:17.623Z,46.80
2022-09-05T14:48:20.315Z,46.10
2022-09-05T14:51:14.770Z,47.70
2022-09-05T14:54:00.347Z,47.70
2022-09-05T14:59:52.491Z,45.90
2022-09-05T15:02:45.353Z,45.40
2022-09-05T15:05:50.824Z,44.90
2022-09-05T15:11:24.175Z,46.30
2022-09-05T15:12:23.426Z,45.60
2022-09-05T15:14:27.005Z,46.20
2022-09-05T15:17:10.017Z,46.20
2022-09-05T15:20:06.187Z,44.80
2022-09-05T15:22:43.125Z,44.30
2022-09-05T15:25:22.619Z,44.80
2022-09-05T15:27:53.501Z,45.90
2022-09-05T15:30:28.083Z,47.80
2022-09-05T15:33:25.661Z,49.60
2022-09-05T15:35:57.028Z,51.30
2022-09-05T15:38:50.353Z,54.80
2022-09-05T15:41:32.116Z,54.30
2022-09-05T15:44:22.727Z,55.70
2022-09-05T15:47:02.278Z,55.00
2022-09-05T15:50:07.615Z,56.00
2022-09-05T15:52:55.671Z,56.10
2022-09-05T15:55:31.120Z,56.60
2022-09-05T15:58:09.948Z,57.30
2022-09-05T16:00:58.819Z,57.60
2022-09-05T16:08:21.750Z,57.50
2022-09-05T16:10:34.101Z,59.50
2022-09-05T16:10:36.592Z,58.30
2022-09-05T16:13:13.275Z,61.90
2022-09-05T16:20:34.592Z,62.60
2022-09-05T16:23:18.147Z,64.10
2022-09-05T16:23:38.154Z,64.90
2022-09-05T16:24:59.326Z,65.60
2022-09-05T16:28:14.628Z,66.80
2022-09-05T16:30:42.914Z,67.70
2022-09-05T16:33:31.856Z,67.70
2022-09-05T16:36:19.166Z,68.10
2022-09-05T16:39:12.188Z,69.60
2022-09-05T16:41:45.851Z,70.70
2022-09-05T16:44:23.176Z,72.00
2022-09-05T16:47:25.822Z,73.40
2022-09-05T16:50:24.103Z,74.40
2022-09-05T16:53:30.431Z,75.70
2022-09-05T16:56:11.146Z,77.30
2022-09-05T16:59:02.486Z,79.50
2022-09-05T17:01:33.475Z,81.50
2022-09-05T17:04:33.349Z,83.60
2022-09-05T17:07:18.741Z,85.80
2022-09-05T17:09:58.052Z,87.40
2022-09-05T17:12:34.543Z,88.40
2022-09-05T17:15:27.138Z,90.00
2022-09-05T17:18:22.202Z,91.30
2022-09-05T17:20:59.065Z,92.50
2022-09-05T17:27:21.239Z,93.60
2022-09-05T17:29:34.133Z,94.70
2022-09-05T17:32:55.412Z,96.90
2022-09-05T17:35:44.032Z,97.50
2022-09-05T17:38:29.928Z,98.20
2022-09-05T17:41:54.281Z,99.00
2022-09-05T17:44:45.945Z,99.60
2022-09-05T17:47:48.213Z,99.90
2022-09-05T17:50:35.196Z,99.90
2022-09-05T17:53:25.840Z,99.90
2022-09-05T17:56:02.925Z,99.90
2022-09-05T17:58:49.572Z,99.90
2022-09-05T18:01:27.176Z,99.90
2022-09-05T18:07:00.600Z,99.90
2022-09-05T18:10:12.206Z,99.90
2022-09-05T18:13:31.199Z,99.90
2022-09-05T18:15:46.573Z,99.90
2022-09-05T18:19:28.376Z,99.90
2022-09-05T18:25:28.465Z,99.90
2022-09-05T18:28:27.701Z,99.90
2022-09-05T18:31:42.280Z,99.90
2022-09-05T18:34:31.337Z,99.90
2022-09-05T18:37:40.872Z,99.90
2022-09-05T18:40:36.958Z,99.90
2022-09-05T18:43:32.748Z,99.90
2022-09-05T18:46:30.003Z,99.90
2022-09-05T18:50:21.794Z,99.90
2022-09-05T18:52:39.390Z,99.90
2022-09-05T18:56:14.249Z,99.90
2022-09-05T18:58:27.956Z,99.90
2022-09-05T19:01:16.832Z,99.90
2022-09-05T19:03:45.615Z,99.90
2022-09-05T19:06:35.589Z,99.90
2022-09-05T19:09:20.980Z,99.90
2022-09-05T19:12:35.011Z,99.90
2022-09-05T19:14:58.204Z,99.90
2022-09-05T19:17:51.508Z,99.90
2022-09-05T19:20:32.903Z,99.90
2022-09-05T19:23:20.941Z,99.90
2022-09-05T19:26:08.270Z,99.90
2022-09-05T19:36:51.020Z,99.90
2022-09-05T19:36:55.079Z,99.90
2022-09-05T19:36:56.604Z,99.90
2022-09-05T19:37:53.874Z,99.90
2022-09-05T19:47:28.969Z,99.90
2022-09-05T19:47:37.950Z,99.90
2022-09-05T19:47:39.458Z,99.90
2022-09-05T19:49:14.279Z,99.90
2022-09-05T19:51:43.505Z,99.90
2022-09-05T19:54:29.852Z,99.90
2022-09-05T19:57:09.399Z,99.90
2022-09-05T19:59:42.052Z,99.90
2022-09-05T20:02:27.697Z,99.90
2022-09-05T20:05:04.095Z,99.90
2022-09-05T20:07:35.581Z,99.90
2022-09-05T20:10:07.887Z,99.90
2022-09-05T20:12:44.541Z,99.90
2022-09-05T20:15:37.811Z,99.90
2022-09-05T20:18:43.287Z,99.90
2022-09-05T20:21:35.578Z,99.90
2022-09-05T20:24:05.680Z,99.90
2022-09-05T20:26:39.381Z,99.90
2022-09-05T20:29:13.825Z,99.90
2022-09-05T20:31:44.895Z,99.90
2022-09-05T20:37:50.336Z,99.90
2022-09-05T20:43:08.810Z,99.90
2022-09-05T20:43:24.766Z,99.90
2022-09-05T20:43:30.868Z,99.90
2022-09-05T20:46:24.284Z,99.90
2022-09-05T20:54:06.556Z,99.90
2022-09-05T20:54:27.561Z,99.90
2022-09-05T20:54:44.962Z,99.90
2022-09-05T20:57:37.972Z,99.90
2022-09-05T21:00:26.341Z,99.90
2022-09-05T21:03:08.541Z,99.90
2022-09-05T21:05:41.346Z,99.90
2022-09-05T21:08:38.263Z,99.90
2022-09-05T21:11:12.983Z,99.90
2022-09-05T21:13:54.302Z,99.90
2022-09-05T21:16:31.258Z,99.90
2022-09-05T21:19:03.787Z,99.90
2022-09-05T21:21:34.945Z,99.90
2022-09-05T21:24:18.518Z,99.90
2022-09-05T21:26:55.989Z,99.90
2022-09-05T21:30:00.775Z,99.90
2022-09-05T21:32:38.274Z,99.90
2022-09-05T21:35:34.391Z,99.90
2022-09-05T21:38:05.761Z,99.90
2022-09-05T21:40:37.461Z,99.90
2022-09-05T21:47:21.663Z,99.90
2022-09-05T21:47:46.739Z,99.90
2022-09-05T21:48:58.454Z,99.90
2022-09-05T21:51:33.509Z,99.90
2022-09-05T21:59:13.961Z,99.90
2022-09-05T21:59:33.443Z,99.90
2022-09-05T22:00:11.224Z,99.90
2022-09-05T22:02:49.719Z,99.90
2022-09-05T22:05:20.671Z,99.90
2022-09-05T22:07:57.077Z,99.90
2022-09-05T22:10:35.691Z,99.90
2022-09-05T22:13:16.871Z,99.90
2022-09-05T22:15:51.648Z,99.90
2022-09-05T22:18:22.241Z,99.90
2022-09-05T22:21:33.459Z,99.90
2022-09-05T22:23:54.350Z,99.90
2022-09-05T22:26:25.157Z,99.90
2022-09-05T22:28:55.919Z,99.90
2022-09-05T22:31:32.463Z,99.90
2022-09-05T22:34:08.712Z,99.90
2022-09-05T22:36:40.129Z,99.90
2022-09-05T22:39:11.549Z,99.90
2022-09-05T22:41:50.239Z,99.90
2022-09-05T22:44:19.443Z,99.90
2022-09-05T22:46:50.877Z,99.90
2022-09-05T22:49:20.847Z,99.90
2022-09-05T22:51:51.718Z,99.90
2022-09-05T22:54:22.709Z,99.90
2022-09-05T22:56:54.463Z,99.90
2022-09-05T22:59:25.354Z,99.90
2022-09-05T23:01:55.568Z,99.90
2022-09-05T23:04:26.377Z,99.90
2022-09-05T23:06:57.073Z,99.90
2022-09-05T23:09:27.995Z,99.90
2022-09-05T23:11:58.359Z,99.90
2022-09-05T23:14:30.163Z,99.90
2022-09-05T23:17:01.420Z,99.90
2022-09-05T23:22:16.472Z,99.90
2022-09-05T23:24:46.705Z,99.90
2022-09-05T23:27:15.236Z,99.90
2022-09-05T23:29:44.903Z,99.90
2022-09-05T23:32:13.401Z,99.90
2022-09-05T23:34:44.686Z,99.90
2022-09-05T23:37:15.917Z,99.90
2022-09-05T23:39:46.056Z,99.90
2022-09-05T23:42:16.480Z,99.90
2022-09-05T23:44:48.844Z,99.90
2022-09-05T23:47:17.754Z,99.90
2022-09-05T23:49:49.742Z,99.90
2022-09-05T23:52:19.522Z,99.90
2022-09-05T23:54:51.708Z,99.90
2022-09-05T23:57:24.185Z,99.90
2022-09-05T23:59:52.974Z,99.90
